Portada
METAR-TAF:

METAR-TAF

Aeroports :

Medina, Aràbia Saudita

latitud: 24-33N, longitud: 039-42E, altitud: 654 m

Observació

L'informe es va fer fa 24 minuts, a les 05:00 UTC
Vent 6 kt del Nord-Est
Temperatura 20°C
Humitat 30%
Pressió 1018 hPa
Visibilitat 10 km o més
sense núvols per sota de 1500 mi sense presència de cumulonimbus.

METAR: OEMA 300500Z 04006KT CAVOK 20/02 Q1018 NOSIG

Hora: 08:24 (05:24 UTC)

Pronòstic

L'informe es va fer fa 6 hores i 24 minuts, a les 23:00 UTC
Pronòstic vàlid del 30 a les 00 UTC al 31 a les 06 UTC
Vent 3 kt amb direcció variable
Visibilitat 10 km o més
sense núvols per sota de 1500 mi sense presència de cumulonimbus.
Evolucionant progressivament
l' 30 a les 06 UTC al 30 a les 08 UTC
Vent 12 kt del Est/Nord-Est
Temporalment
l' 30 a les 06 UTC al 30 a les 16 UTC
Visibilitat: 4000 m
Pols estès

TAF: OEMA 292300Z 3000/3106 VRB03KT CAVOK BECMG 3006/3008 06012KT TEMPO 3006/3016 4000 DU

Observacions i pronòstics meteorològics de més de 4000 aeroports (METAR i TAF).

Les estacions disponibles són els punts grocs i vermells al mapa.

Posi el ratolí al punt desitjat per veure el nom de l'estació.

Feu clic per veure les observacions i els pronòstics meteorològics.

Per canviar el mapa: feu clic els botons verds amb una creu de color negre per apropar; al botó verd amb un guió per allunyar la imatge; o en les fletxes verdes per a mapes adjacents.


METAR-TAF: